createdAt,value
2023-03-21T00:00:42.905Z,2.22
2023-03-21T00:03:10.163Z,0.32
2023-03-21T00:05:49.673Z,1.33
2023-03-21T00:08:16.936Z,1.20
2023-03-21T00:10:44.789Z,0.85
2023-03-21T00:13:16.192Z,1.17
2023-03-21T00:16:05.041Z,1.13
2023-03-21T00:18:43.142Z,3.22
2023-03-21T00:21:40.585Z,2.20
2023-03-21T00:24:03.546Z,2.97
2023-03-21T00:26:30.468Z,4.70
2023-03-21T00:28:57.550Z,1.85
2023-03-21T00:31:24.374Z,1.00
2023-03-21T00:33:51.256Z,1.80
2023-03-21T00:36:18.394Z,0.77
2023-03-21T00:38:46.011Z,0.82
2023-03-21T00:41:23.720Z,0.28
2023-03-21T00:44:02.160Z,1.17
2023-03-21T00:46:39.822Z,2.50
2023-03-21T00:49:09.303Z,1.35
2023-03-21T00:51:36.304Z,0.25
2023-03-21T00:54:05.720Z,0.30
2023-03-21T00:56:32.973Z,1.58
2023-03-21T00:58:59.831Z,0.85
2023-03-21T01:01:31.881Z,0.45
2023-03-21T01:04:04.667Z,0.75
2023-03-21T01:06:39.366Z,1.45
2023-03-21T01:09:18.401Z,0.85
2023-03-21T01:11:45.534Z,1.38
2023-03-21T01:14:22.454Z,0.38
2023-03-21T01:16:51.444Z,0.73
2023-03-21T01:22:06.849Z,0.45
2023-03-21T01:24:35.593Z,0.60
2023-03-21T01:27:04.702Z,1.85
2023-03-21T01:29:31.628Z,3.22
2023-03-21T01:31:58.503Z,4.28
2023-03-21T01:34:26.270Z,1.20
2023-03-21T01:36:53.189Z,1.08
2023-03-21T01:39:21.638Z,0.40
2023-03-21T01:41:49.927Z,0.70
2023-03-21T01:44:22.742Z,5.40
2023-03-21T01:47:11.592Z,1.90
2023-03-21T01:49:51.193Z,0.70
2023-03-21T01:52:37.518Z,1.00
2023-03-21T01:55:14.013Z,0.98
2023-03-21T01:58:05.885Z,4.57
2023-03-21T02:00:57.721Z,0.63
2023-03-21T02:03:38.403Z,2.28
2023-03-21T02:06:35.399Z,1.40
2023-03-21T02:09:14.177Z,0.40
2023-03-21T02:11:46.492Z,0.95
2023-03-21T02:14:26.561Z,0.50
2023-03-21T02:17:03.596Z,0.63
2023-03-21T02:20:08.968Z,1.40
2023-03-21T02:22:48.080Z,1.92
2023-03-21T02:25:35.726Z,3.35
2023-03-21T02:28:24.491Z,1.70
2023-03-21T02:31:06.698Z,0.40
2023-03-21T02:34:01.478Z,1.35
2023-03-21T02:36:48.920Z,1.88
2023-03-21T02:39:36.416Z,4.43
2023-03-21T02:42:16.668Z,1.15
2023-03-21T02:44:57.547Z,0.82
2023-03-21T02:47:34.919Z,1.02
2023-03-21T02:50:09.330Z,2.05
2023-03-21T02:52:39.834Z,2.75
2023-03-21T02:55:32.064Z,1.27
2023-03-21T02:58:12.464Z,2.80
2023-03-21T03:00:44.764Z,0.45
2023-03-21T03:03:24.835Z,1.90
2023-03-21T03:06:02.161Z,1.23
2023-03-21T03:09:07.336Z,2.10
2023-03-21T03:11:40.044Z,0.98
2023-03-21T03:14:49.988Z,0.93
2023-03-21T03:17:58.155Z,0.20
2023-03-21T03:20:46.873Z,0.75
2023-03-21T03:23:28.425Z,0.65
2023-03-21T03:26:11.576Z,7.82
2023-03-21T03:28:44.922Z,0.93
2023-03-21T03:31:21.982Z,0.82
2023-03-21T03:33:57.152Z,0.80
2023-03-21T03:36:32.385Z,0.57
2023-03-21T03:39:09.050Z,0.65
2023-03-21T03:42:15.047Z,0.57
2023-03-21T03:44:37.859Z,1.70
2023-03-21T03:47:32.385Z,0.40
2023-03-21T03:50:10.148Z,0.60
2023-03-21T03:52:57.156Z,0.22
2023-03-21T03:55:34.323Z,0.57
2023-03-21T03:58:19.636Z,0.88
2023-03-21T04:00:49.484Z,0.28
2023-03-21T04:03:16.416Z,0.50
2023-03-21T04:05:46.274Z,1.00
2023-03-21T04:08:16.143Z,0.88
2023-03-21T04:10:46.616Z,0.77
2023-03-21T04:13:13.924Z,1.17
2023-03-21T04:16:00.153Z,0.20
2023-03-21T04:18:27.852Z,1.38
2023-03-21T04:20:54.662Z,0.30
2023-03-21T04:23:21.699Z,0.00
2023-03-21T04:25:56.650Z,0.95
2023-03-21T04:28:33.601Z,3.17
2023-03-21T04:31:25.669Z,1.80
2023-03-21T04:34:03.494Z,0.50
2023-03-21T04:36:39.231Z,0.43
2023-03-21T04:39:12.476Z,0.52
2023-03-21T04:41:42.249Z,0.20
2023-03-21T04:44:10.414Z,2.35
2023-03-21T04:46:37.930Z,2.28
2023-03-21T04:49:07.014Z,1.35
2023-03-21T04:51:34.929Z,0.50
2023-03-21T04:54:02.331Z,0.90
2023-03-21T04:56:34.144Z,0.45
2023-03-21T04:59:06.004Z,4.20
2023-03-21T05:01:32.993Z,0.88
2023-03-21T05:04:01.878Z,0.95
2023-03-21T05:06:32.082Z,1.13
2023-03-21T05:09:01.527Z,1.67
2023-03-21T05:11:30.919Z,1.80
2023-03-21T05:14:01.238Z,2.63
2023-03-21T05:16:30.883Z,1.60
2023-03-21T05:18:59.236Z,1.35
2023-03-21T05:21:29.779Z,2.55
2023-03-21T05:23:58.511Z,2.13
2023-03-21T05:26:25.957Z,0.52
2023-03-21T05:28:59.737Z,2.47
2023-03-21T05:31:26.640Z,1.23
2023-03-21T05:34:04.318Z,2.97
2023-03-21T05:36:34.078Z,5.53
2023-03-21T05:39:05.414Z,1.25
2023-03-21T05:41:35.870Z,2.03
2023-03-21T05:44:04.583Z,0.68
2023-03-21T05:46:31.622Z,3.05
2023-03-21T05:48:58.961Z,0.77
2023-03-21T05:51:25.954Z,2.10
2023-03-21T05:53:52.795Z,3.22
2023-03-21T05:56:21.236Z,4.93
2023-03-21T05:58:55.149Z,1.63
2023-03-21T06:01:23.345Z,1.58
2023-03-21T06:04:04.203Z,2.80
2023-03-21T06:06:31.074Z,0.35
2023-03-21T06:11:32.101Z,2.38
2023-03-21T06:14:20.551Z,1.35
2023-03-21T06:17:03.691Z,3.45
2023-03-21T06:19:31.967Z,3.28
2023-03-21T06:22:08.467Z,5.00
2023-03-21T06:24:38.573Z,0.88
2023-03-21T06:27:05.677Z,1.95
2023-03-21T06:29:46.391Z,0.93
2023-03-21T06:32:13.716Z,5.53
2023-03-21T06:34:41.121Z,3.15
2023-03-21T06:37:10.034Z,4.95
2023-03-21T06:39:37.307Z,4.25
2023-03-21T06:42:04.340Z,0.85
2023-03-21T06:44:31.327Z,5.28
2023-03-21T06:47:03.191Z,3.10
2023-03-21T06:49:30.894Z,4.82
2023-03-21T06:52:06.037Z,21.75
2023-03-21T06:54:32.851Z,6.22
2023-03-21T06:57:03.747Z,6.70
2023-03-21T06:59:34.295Z,9.60
2023-03-21T07:02:04.025Z,8.55
2023-03-21T07:04:33.196Z,3.92
2023-03-21T07:07:00.074Z,12.07
2023-03-21T07:09:28.258Z,4.45
2023-03-21T07:11:58.658Z,4.45
2023-03-21T07:14:34.569Z,10.50
2023-03-21T07:17:01.634Z,9.10
2023-03-21T07:19:29.558Z,3.58
2023-03-21T07:21:56.363Z,3.50
2023-03-21T07:24:23.154Z,1.13
2023-03-21T07:26:49.940Z,1.85
2023-03-21T07:29:17.631Z,7.28
2023-03-21T07:31:44.573Z,5.32
2023-03-21T07:34:11.649Z,16.77
2023-03-21T07:36:39.409Z,7.25
2023-03-21T07:39:07.556Z,4.90
2023-03-21T07:41:34.508Z,8.77
2023-03-21T07:44:12.828Z,0.68
2023-03-21T07:46:39.721Z,3.92
2023-03-21T07:49:06.812Z,1.40
2023-03-21T07:51:35.408Z,2.10
2023-03-21T07:54:02.743Z,3.90
2023-03-21T07:56:29.680Z,1.73
2023-03-21T07:58:56.516Z,9.98
2023-03-21T08:01:23.473Z,0.73
2023-03-21T08:03:51.416Z,1.00
2023-03-21T08:06:18.305Z,1.02
2023-03-21T08:08:45.088Z,1.92
2023-03-21T08:11:12.677Z,2.20
2023-03-21T08:13:39.869Z,3.05
2023-03-21T08:16:08.138Z,1.83
2023-03-21T08:18:34.956Z,8.27
2023-03-21T08:21:01.885Z,6.80
2023-03-21T08:23:29.709Z,2.75
2023-03-21T08:25:57.547Z,0.73
2023-03-21T08:28:24.765Z,2.13
2023-03-21T08:30:51.602Z,3.55
2023-03-21T08:33:18.831Z,1.02
2023-03-21T08:35:46.675Z,2.00
2023-03-21T08:38:13.965Z,1.00
2023-03-21T08:40:41.477Z,1.85
2023-03-21T08:43:08.443Z,1.67
2023-03-21T08:45:35.214Z,4.63
2023-03-21T08:48:02.148Z,2.97
2023-03-21T08:50:31.727Z,4.07
2023-03-21T08:52:58.561Z,2.13
2023-03-21T08:55:25.869Z,2.67
2023-03-21T08:57:52.690Z,1.98
2023-03-21T09:00:20.697Z,2.08
2023-03-21T09:02:51.457Z,0.93
2023-03-21T09:05:19.316Z,9.35
2023-03-21T09:07:46.440Z,5.97
2023-03-21T09:10:21.508Z,2.45
2023-03-21T09:12:51.237Z,3.13
2023-03-21T09:15:21.700Z,2.92
2023-03-21T09:17:52.505Z,1.90
2023-03-21T09:20:31.063Z,3.10
2023-03-21T09:22:59.802Z,3.22
2023-03-21T09:25:29.488Z,3.72
2023-03-21T09:27:58.125Z,6.88
2023-03-21T09:30:26.410Z,3.17
2023-03-21T09:32:55.567Z,0.32
2023-03-21T09:35:22.761Z,11.85
2023-03-21T09:37:50.163Z,8.65
2023-03-21T09:40:20.153Z,2.55
2023-03-21T09:42:59.702Z,2.38
2023-03-21T09:46:02.299Z,1.97
2023-03-21T09:48:58.027Z,4.75
2023-03-21T09:51:34.874Z,2.45
2023-03-21T09:54:08.709Z,3.20
2023-03-21T09:56:38.610Z,8.65
2023-03-21T09:59:09.029Z,11.93
2023-03-21T10:04:14.088Z,2.30
2023-03-21T10:06:43.068Z,0.57
2023-03-21T10:09:24.454Z,3.10
2023-03-21T10:11:56.749Z,5.20
2023-03-21T10:14:40.914Z,4.43
2023-03-21T10:17:34.180Z,2.17
2023-03-21T10:20:22.488Z,5.45
2023-03-21T10:22:56.018Z,3.47
2023-03-21T10:25:33.018Z,1.95
2023-03-21T10:28:01.850Z,1.75
2023-03-21T10:30:47.008Z,5.03
2023-03-21T10:33:17.142Z,5.50
2023-03-21T10:35:50.681Z,5.57
2023-03-21T10:38:21.022Z,1.42
2023-03-21T10:40:48.114Z,0.73
2023-03-21T10:43:37.917Z,17.13
2023-03-21T10:46:21.292Z,1.55
2023-03-21T10:48:53.165Z,3.83
2023-03-21T10:51:22.672Z,3.38
2023-03-21T10:53:57.611Z,3.65
2023-03-21T10:56:31.140Z,0.80
2023-03-21T10:59:00.412Z,5.78
2023-03-21T11:01:39.993Z,3.88
2023-03-21T11:04:12.731Z,1.65
2023-03-21T11:06:41.379Z,3.30
2023-03-21T11:09:21.759Z,4.68
2023-03-21T11:12:02.784Z,2.03
2023-03-21T11:14:48.163Z,0.80
2023-03-21T11:17:17.987Z,5.60
2023-03-21T11:19:58.348Z,2.97
2023-03-21T11:22:39.312Z,3.90
2023-03-21T11:25:12.134Z,6.30
2023-03-21T11:27:52.312Z,9.98
2023-03-21T11:30:22.950Z,0.80
2023-03-21T11:32:58.357Z,1.20
2023-03-21T11:35:32.437Z,2.25
2023-03-21T11:37:59.744Z,5.03
2023-03-21T11:40:34.176Z,1.65
2023-03-21T11:43:02.656Z,3.58
2023-03-21T11:45:36.113Z,5.07
2023-03-21T11:48:12.958Z,1.77
2023-03-21T11:50:47.329Z,4.65
2023-03-21T11:53:29.040Z,3.50
2023-03-21T11:56:09.789Z,7.13
2023-03-21T11:58:55.895Z,2.88
2023-03-21T12:01:57.322Z,3.53
2023-03-21T12:04:32.891Z,4.50
2023-03-21T12:07:11.174Z,6.13
2023-03-21T12:09:54.314Z,6.63
2023-03-21T12:13:00.022Z,2.67
2023-03-21T12:16:05.683Z,1.30
2023-03-21T12:18:59.512Z,2.95
2023-03-21T12:21:46.621Z,3.25
2023-03-21T12:24:19.942Z,8.38
2023-03-21T12:27:18.540Z,4.18
2023-03-21T12:30:04.438Z,5.40
2023-03-21T12:32:50.619Z,3.45
2023-03-21T12:35:20.269Z,4.75
2023-03-21T12:38:04.072Z,0.70
2023-03-21T12:40:44.563Z,0.85
2023-03-21T12:45:47.000Z,1.52
2023-03-21T12:48:51.467Z,4.80
2023-03-21T12:51:22.967Z,12.75
2023-03-21T12:54:17.560Z,2.28
2023-03-21T12:56:52.197Z,3.38
2023-03-21T12:59:39.325Z,0.75
2023-03-21T13:02:29.494Z,4.22
2023-03-21T13:05:16.839Z,2.97
2023-03-21T13:07:48.781Z,3.38
2023-03-21T13:10:21.297Z,3.65
2023-03-21T13:12:53.854Z,1.88
2023-03-21T13:15:36.892Z,6.25
2023-03-21T13:18:34.642Z,8.15
2023-03-21T13:21:12.476Z,5.13
2023-03-21T13:23:39.790Z,4.90
2023-03-21T13:26:11.315Z,16.48
2023-03-21T13:28:41.431Z,1.35
2023-03-21T13:31:21.443Z,6.40
2023-03-21T13:33:54.099Z,9.60
2023-03-21T13:36:29.831Z,2.20
2023-03-21T13:39:04.116Z,6.03
2023-03-21T13:41:39.593Z,3.45
2023-03-21T13:44:18.529Z,2.08
2023-03-21T13:47:03.828Z,6.00
2023-03-21T13:49:38.100Z,2.25
2023-03-21T13:52:11.101Z,5.10
2023-03-21T13:54:57.534Z,3.85
2023-03-21T13:57:27.307Z,9.70
2023-03-21T14:00:26.977Z,3.38
2023-03-21T14:03:16.454Z,1.83
2023-03-21T14:05:50.509Z,5.23
2023-03-21T14:08:27.940Z,4.82
2023-03-21T14:11:04.081Z,2.75
2023-03-21T14:13:33.111Z,3.33
2023-03-21T14:16:12.672Z,3.67
2023-03-21T14:18:56.022Z,4.13
2023-03-21T14:21:25.957Z,4.25
2023-03-21T14:24:02.074Z,3.30
2023-03-21T14:26:40.292Z,1.77
2023-03-21T14:29:24.775Z,1.48
2023-03-21T14:31:54.918Z,3.03
2023-03-21T14:34:22.768Z,3.45
2023-03-21T14:36:57.597Z,4.30
2023-03-21T14:39:30.843Z,3.75
2023-03-21T14:42:06.802Z,4.50
2023-03-21T14:44:56.683Z,2.65
2023-03-21T14:47:27.413Z,8.32
2023-03-21T14:49:54.852Z,6.07
2023-03-21T14:52:32.045Z,6.38
2023-03-21T14:55:01.012Z,3.65
2023-03-21T14:57:31.299Z,2.35
2023-03-21T15:00:14.625Z,3.38
2023-03-21T15:02:45.956Z,8.07
2023-03-21T15:05:27.005Z,5.35
2023-03-21T15:07:56.914Z,5.25
2023-03-21T15:10:25.958Z,9.38
2023-03-21T15:12:59.045Z,3.35
2023-03-21T15:15:28.289Z,3.25
2023-03-21T15:18:01.635Z,2.58
2023-03-21T15:20:34.127Z,5.50
2023-03-21T15:23:09.467Z,4.28
2023-03-21T15:25:37.548Z,5.35
2023-03-21T15:28:06.534Z,6.82
2023-03-21T15:30:34.268Z,14.68
2023-03-21T15:33:10.317Z,4.50
2023-03-21T15:35:46.052Z,4.70
2023-03-21T15:38:29.679Z,2.20
2023-03-21T15:41:19.058Z,6.60
2023-03-21T15:43:48.203Z,6.53
2023-03-21T15:46:52.246Z,3.55
2023-03-21T15:49:25.196Z,4.13
2023-03-21T15:51:57.795Z,3.53
2023-03-21T15:54:29.742Z,4.15
2023-03-21T15:57:03.371Z,14.60
2023-03-21T15:59:35.499Z,3.30
2023-03-21T16:02:03.826Z,9.05
2023-03-21T16:04:31.288Z,5.78
2023-03-21T16:07:04.289Z,2.40
2023-03-21T16:09:44.210Z,1.80
2023-03-21T16:12:13.529Z,1.38
2023-03-21T16:14:42.597Z,2.55
2023-03-21T16:17:39.464Z,2.85
2023-03-21T16:20:28.583Z,3.95
2023-03-21T16:22:55.471Z,2.35
2023-03-21T16:25:22.739Z,2.50
2023-03-21T16:27:49.701Z,1.75
2023-03-21T16:30:19.930Z,4.15
2023-03-21T16:32:47.737Z,10.73
2023-03-21T16:35:14.739Z,4.15
2023-03-21T16:37:41.881Z,3.53
2023-03-21T16:40:37.464Z,2.33
2023-03-21T16:43:04.499Z,3.08
2023-03-21T16:45:31.635Z,5.88
2023-03-21T16:47:59.427Z,3.17
2023-03-21T16:50:33.923Z,4.68
2023-03-21T16:53:02.021Z,2.20
2023-03-21T16:55:29.616Z,2.80
2023-03-21T16:57:57.418Z,6.28
2023-03-21T17:00:27.285Z,7.70
2023-03-21T17:02:56.185Z,5.65
2023-03-21T17:05:26.115Z,3.22
2023-03-21T17:07:54.593Z,8.32
2023-03-21T17:10:22.939Z,9.73
2023-03-21T17:12:50.163Z,5.82
2023-03-21T17:15:17.512Z,1.83
2023-03-21T17:17:45.048Z,1.63
2023-03-21T17:20:17.588Z,2.67
2023-03-21T17:22:45.235Z,4.22
2023-03-21T17:25:12.236Z,2.60
2023-03-21T17:27:39.452Z,3.00
2023-03-21T17:30:23.237Z,4.43
2023-03-21T17:32:51.601Z,3.70
2023-03-21T17:35:18.996Z,6.88
2023-03-21T17:37:50.586Z,9.68
2023-03-21T17:40:23.064Z,3.22
2023-03-21T17:42:51.112Z,4.28
2023-03-21T17:45:18.908Z,3.33
2023-03-21T17:47:46.170Z,5.47
2023-03-21T17:50:22.659Z,3.67
2023-03-21T17:52:50.851Z,4.28
2023-03-21T17:55:21.040Z,4.43
2023-03-21T17:57:49.389Z,5.30
2023-03-21T18:00:22.637Z,5.35
2023-03-21T18:02:50.446Z,4.45
2023-03-21T18:05:17.353Z,4.05
2023-03-21T18:08:08.667Z,4.47
2023-03-21T18:10:32.631Z,3.40
2023-03-21T18:13:00.284Z,4.40
2023-03-21T18:15:30.158Z,4.45
2023-03-21T18:17:58.325Z,6.10
2023-03-21T18:20:44.613Z,5.18
2023-03-21T18:23:14.614Z,5.38
2023-03-21T18:25:41.811Z,4.53
2023-03-21T18:28:11.875Z,5.30
2023-03-21T18:33:27.441Z,4.20
2023-03-21T18:35:59.202Z,5.30
2023-03-21T18:38:27.785Z,4.28
2023-03-21T18:40:55.566Z,5.57
2023-03-21T18:46:09.658Z,5.95
2023-03-21T18:48:36.838Z,5.97
2023-03-21T18:51:04.420Z,7.63
2023-03-21T18:53:31.599Z,8.93
2023-03-21T18:55:58.449Z,9.48
2023-03-21T18:58:25.718Z,7.60
2023-03-21T19:00:53.649Z,5.78
2023-03-21T19:03:35.365Z,5.93
2023-03-21T19:06:04.953Z,9.63
2023-03-21T19:08:32.366Z,9.48
2023-03-21T19:11:03.343Z,6.05
2023-03-21T19:13:33.296Z,10.32
2023-03-21T19:16:02.479Z,8.32
2023-03-21T19:18:49.918Z,10.82
2023-03-21T19:21:19.054Z,7.47
2023-03-21T19:26:34.513Z,6.65
2023-03-21T19:29:01.487Z,8.00
2023-03-21T19:31:28.355Z,6.55
2023-03-21T19:33:55.713Z,9.27
2023-03-21T19:36:23.665Z,5.53
2023-03-21T19:38:51.721Z,10.23
2023-03-21T19:41:20.664Z,5.53
2023-03-21T19:43:54.647Z,9.02
2023-03-21T19:46:25.009Z,8.73
2023-03-21T19:48:56.294Z,10.00
2023-03-21T19:51:29.470Z,7.70
2023-03-21T19:54:03.329Z,9.40
2023-03-21T19:56:31.606Z,7.47
2023-03-21T19:58:59.701Z,10.32
2023-03-21T20:01:27.745Z,3.88
2023-03-21T20:03:54.925Z,5.18
2023-03-21T20:06:24.830Z,7.28
2023-03-21T20:11:40.401Z,8.30
2023-03-21T20:14:07.466Z,14.65
2023-03-21T20:16:36.586Z,6.35
2023-03-21T20:19:10.243Z,8.00
2023-03-21T20:21:48.208Z,5.97
2023-03-21T20:24:18.970Z,5.93
2023-03-21T20:26:46.513Z,6.38
2023-03-21T20:32:00.783Z,7.13
2023-03-21T20:34:28.453Z,7.63
2023-03-21T20:36:56.052Z,5.00
2023-03-21T20:39:23.264Z,4.97
2023-03-21T20:41:50.170Z,4.75
2023-03-21T20:47:05.860Z,7.40
2023-03-21T20:49:35.562Z,5.70
2023-03-21T20:54:54.029Z,7.35
2023-03-21T20:57:21.072Z,11.13
2023-03-21T20:59:47.924Z,7.20
2023-03-21T21:02:14.936Z,7.90
2023-03-21T21:07:29.417Z,9.82
2023-03-21T21:09:56.380Z,11.65
2023-03-21T21:12:27.593Z,8.63
2023-03-21T21:14:55.824Z,7.40
2023-03-21T21:17:40.324Z,5.95
2023-03-21T21:20:17.334Z,11.15
2023-03-21T21:22:59.083Z,7.53
2023-03-21T21:25:28.962Z,6.65
2023-03-21T21:27:55.999Z,6.97
2023-03-21T21:30:23.075Z,7.30
2023-03-21T21:32:50.012Z,7.82
2023-03-21T21:35:19.406Z,8.65
2023-03-21T21:37:46.286Z,6.65
2023-03-21T21:40:15.729Z,6.78
2023-03-21T21:42:43.882Z,9.20
2023-03-21T21:45:12.239Z,6.90
2023-03-21T21:47:39.664Z,6.63
2023-03-21T21:50:07.557Z,6.63
2023-03-21T21:52:34.440Z,11.93
2023-03-21T21:55:02.210Z,10.15
2023-03-21T21:57:34.080Z,8.55
2023-03-21T22:00:06.885Z,6.43
2023-03-21T22:02:39.065Z,6.22
2023-03-21T22:05:06.945Z,8.82
2023-03-21T22:07:33.728Z,6.57
2023-03-21T22:10:00.554Z,6.45
2023-03-21T22:12:28.504Z,9.45
2023-03-21T22:14:55.306Z,10.73
2023-03-21T22:17:22.172Z,12.98
2023-03-21T22:20:04.364Z,10.40
2023-03-21T22:22:36.652Z,12.02
2023-03-21T22:25:05.682Z,10.73
2023-03-21T22:27:32.724Z,10.05
2023-03-21T22:30:04.706Z,9.25
2023-03-21T22:32:35.902Z,14.20
2023-03-21T22:35:02.907Z,13.45
2023-03-21T22:37:34.640Z,15.45
2023-03-21T22:40:01.528Z,16.75
2023-03-21T22:42:28.360Z,14.02
2023-03-21T22:44:55.365Z,10.98
2023-03-21T22:47:22.185Z,12.85
2023-03-21T22:49:49.082Z,13.63
2023-03-21T22:52:16.022Z,15.82
2023-03-21T22:54:42.896Z,14.88
2023-03-21T22:57:09.682Z,15.40
2023-03-21T22:59:36.480Z,13.57
2023-03-21T23:02:03.519Z,23.83
2023-03-21T23:04:31.278Z,14.00
2023-03-21T23:06:58.698Z,14.35
2023-03-21T23:09:25.632Z,16.85
2023-03-21T23:11:52.572Z,17.45
2023-03-21T23:14:21.027Z,18.95
2023-03-21T23:17:00.171Z,19.55
2023-03-21T23:19:28.780Z,16.92
2023-03-21T23:21:56.150Z,14.88
2023-03-21T23:24:23.348Z,16.65
2023-03-21T23:26:50.350Z,20.70
2023-03-21T23:29:17.194Z,16.90
2023-03-21T23:31:44.099Z,18.30
2023-03-21T23:34:12.123Z,18.50
2023-03-21T23:36:39.874Z,20.17
2023-03-21T23:39:06.963Z,19.13
2023-03-21T23:41:33.968Z,18.08
2023-03-21T23:44:00.855Z,19.30
2023-03-21T23:46:27.783Z,22.92
2023-03-21T23:48:54.646Z,21.25
2023-03-21T23:51:21.676Z,19.45
2023-03-21T23:53:48.824Z,18.60
2023-03-21T23:56:19.838Z,18.73
2023-03-21T23:58:47.722Z,17.52
